Portada
METAR-TAF:

METAR-TAF

Aeropuertos :

Aeropuerto Internacional de Chuuk

Weno, Micronesia

latitud: 07-28N, longitud: 151-51E, altitud: 3 m

Observación

El informe se hizo hace 1 hora y 2 minutos, a las 23:50 UTC
Viento 8 kt del norte
Temperatura 31°C
Humedad 79%
Presión 1008 hPa
Visibilidad: 24.1 km
Escasas nubes a una altura de 1400 ft
Nubes dispersas a una altura de 12000 ft
Cielo cubierto a una altura de 28000 ft

METAR: PTKK 182350Z 36008KT 15SM FEW014 SCT120 OVC280 31/27 A2978 RMK SLP086 8/171 T03060268 10306 20272 50003

Hora: 10:52 (00:52 UTC)

Pronóstico

El informe se hizo hace 1 hora y 25 minutos, a las 23:27 UTC
Pronóstico válido del 19 a las 00 UTC al 19 a las 24 UTC
Viento 10 kt del norte
Visibilidad: 10 km
Nubes dispersas a una altura de 1500 ft
Cielo nuboso a una altura de 12000 ft
chaparrones en las proximidades

TAF: PTKK 182327Z 1900/1924 01010KT P6SM VCSH SCT015 BKN120

Observaciones y pronósticos meteorológicos de más de 4000 aeropuertos (mensajes METAR y TAF).

Los puntos amarillos y rojos representan las estaciones disponibles.

Ponga el ratón en el punto deseado para ver el nombre de la estación.

Haga clic para ver las observaciones y los pronósticos meteorológicos.

Para cambiar el mapa : haga clic en los botones verdes con una cruz de color negro para hacer un zoom, en el botón verde con un guión para alejar o en las flechas verdes para mapas adyacentes.


METAR-TAF: